Time;durP1;ratioP1;P1;durP2;ratioP2;P2;SDS_P1;SDS_P2;PMS_P1;PMS_P2;Temp;Humidity;BMP_temperature;BMP_pressure;BME280_temperature;BME280_humidity;BME280_pressure;Samples;Min_cycle;Max_cycle;Signal;HPM_P1;HPM_P2
2024/04/22 00:00:23;;;;;;;1.50;1.20;;;;;;;7.14;63.32;94677.56;5481447;26;19994;-72
2024/04/22 00:02:48;;;;;;;1.50;1.10;;;;;;;7.17;63.06;94660.34;5481820;26;19998;-73
2024/04/22 00:05:14;;;;;;;1.50;0.93;;;;;;;7.32;62.33;94665.50;5479661;26;19998;-73
2024/04/22 00:07:39;;;;;;;2.40;1.33;;;;;;;7.17;62.87;94674.00;5483317;26;20014;-73
2024/04/22 00:10:05;;;;;;;1.52;1.10;;;;;;;7.07;63.14;94668.75;5483732;26;20371;-73
2024/04/22 00:12:31;;;;;;;1.25;1.08;;;;;;;7.04;63.14;94675.03;5485970;26;20009;-73
2024/04/22 00:14:56;;;;;;;1.30;1.10;;;;;;;7.08;62.66;94679.25;5484708;26;20002;-73
2024/04/22 00:17:21;;;;;;;1.55;1.00;;;;;;;7.05;62.63;94687.53;5483477;26;20002;-74
2024/04/22 00:19:47;;;;;;;1.85;1.10;;;;;;;7.02;62.21;94682.91;5484714;26;20074;-73
2024/04/22 00:22:12;;;;;;;1.67;1.10;;;;;;;7.04;62.39;94689.47;5484638;26;20005;-73
2024/04/22 00:24:38;;;;;;;1.30;0.90;;;;;;;7.06;62.34;94697.28;5486070;26;20109;-72
2024/04/22 00:27:04;;;;;;;2.00;1.10;;;;;;;6.99;62.86;94705.59;5482785;26;20005;-71
2024/04/22 00:29:29;;;;;;;2.22;1.20;;;;;;;6.96;63.28;94704.50;5485906;26;19994;-73
2024/04/22 00:31:55;;;;;;;1.90;1.30;;;;;;;6.93;63.63;94710.78;5483799;26;20010;-74
2024/04/22 00:34:20;;;;;;;1.77;1.23;;;;;;;7.09;62.85;94719.06;5485595;26;20010;-73
2024/04/22 00:36:45;;;;;;;1.58;1.23;;;;;;;7.05;63.24;94721.09;5485925;26;20047;-73
2024/04/22 00:39:11;;;;;;;1.90;1.35;;;;;;;6.87;63.18;94720.66;5483158;26;19994;-73
2024/04/22 00:41:36;;;;;;;2.00;1.40;;;;;;;6.92;63.31;94722.91;5484567;26;19994;-73
2024/04/22 00:44:02;;;;;;;1.90;1.38;;;;;;;6.98;63.02;94723.19;5484539;26;20002;-73
2024/04/22 00:46:27;;;;;;;1.77;1.60;;;;;;;7.07;63.23;94737.84;5484382;26;20317;-73
2024/04/22 00:48:53;;;;;;;2.05;1.80;;;;;;;6.99;62.98;94730.19;5485351;26;20005;-73
2024/04/22 00:51:20;;;;;;;1.92;1.40;;;;;;;6.84;63.48;94729.69;5485814;26;20005;-73
2024/04/22 00:53:46;;;;;;;2.08;1.48;;;;;;;6.88;63.32;94744.84;5483849;26;20067;-72
2024/04/22 00:56:12;;;;;;;1.63;1.20;;;;;;;6.82;63.16;94738.28;5483193;26;20117;-73
2024/04/22 00:58:37;;;;;;;1.85;1.45;;;;;;;6.85;63.14;94737.47;5486482;26;19994;-73
2024/04/22 01:01:05;;;;;;;1.75;1.42;;;;;;;6.86;62.79;94751.91;5483064;26;20012;-72
2024/04/22 01:03:32;;;;;;;1.80;1.30;;;;;;;6.89;62.69;94745.63;5484276;26;20456;-72
2024/04/22 01:05:58;;;;;;;2.80;1.83;;;;;;;6.99;62.61;94750.09;5484504;26;20026;-72
2024/04/22 01:08:23;;;;;;;1.63;1.45;;;;;;;6.98;62.72;94747.78;5485942;26;20009;-72
2024/04/22 01:10:48;;;;;;;1.70;1.30;;;;;;;6.94;63.13;94750.59;5485138;26;20002;-72
2024/04/22 01:13:14;;;;;;;1.90;1.42;;;;;;;6.90;63.81;94750.66;5453278;26;20000;-72
2024/04/22 01:15:39;;;;;;;1.80;1.20;;;;;;;6.78;64.29;94748.53;5485788;26;19998;-71
2024/04/22 01:18:04;;;;;;;2.10;1.60;;;;;;;6.95;64.11;94754.09;5482329;26;20005;-73
2024/04/22 01:20:30;;;;;;;2.00;1.67;;;;;;;6.93;64.24;94754.50;5483511;26;19999;-73
2024/04/22 01:22:55;;;;;;;2.03;1.55;;;;;;;6.79;64.95;94754.75;5482089;26;20066;-73
2024/04/22 01:25:21;;;;;;;2.40;1.50;;;;;;;6.95;64.13;94762.31;5485173;26;19997;-72
2024/04/22 01:27:47;;;;;;;2.47;1.50;;;;;;;6.92;64.35;94759.19;5483960;26;20072;-72
2024/04/22 01:30:13;;;;;;;2.33;1.50;;;;;;;6.96;64.57;94763.84;5485349;26;20348;-73
2024/04/22 01:32:39;;;;;;;2.03;1.60;;;;;;;7.02;64.41;94760.22;5482944;26;19998;-73
2024/04/22 01:35:04;;;;;;;2.20;1.67;;;;;;;6.96;64.62;94755.63;5484471;26;20393;-71
2024/04/22 01:37:30;;;;;;;2.08;1.60;;;;;;;7.10;64.72;94761.59;5485274;26;20009;-71
2024/04/22 01:39:55;;;;;;;2.72;1.65;;;;;;;6.98;64.81;94767.69;5481849;26;20146;-72
2024/04/22 01:42:22;;;;;;;2.10;1.73;;;;;;;6.78;65.74;94770.38;5483540;26;20074;-73
2024/04/22 01:44:47;;;;;;;2.20;1.42;;;;;;;6.60;66.27;94776.16;5451461;26;20009;-73
2024/04/22 01:47:12;;;;;;;2.58;1.88;;;;;;;6.75;66.04;94781.38;5485172;26;20428;-72
2024/04/22 01:49:38;;;;;;;2.67;1.98;;;;;;;6.73;65.67;94765.41;5484395;26;20009;-72
2024/04/22 01:52:03;;;;;;;2.15;1.70;;;;;;;6.85;65.26;94772.22;5482450;26;20038;-72
2024/04/22 01:54:29;;;;;;;2.10;1.40;;;;;;;6.62;65.83;94764.78;5484832;26;20022;-73
2024/04/22 01:56:58;;;;;;;2.45;1.98;;;;;;;6.68;65.82;94762.38;5483359;26;20050;-73
2024/04/22 01:59:23;;;;;;;3.35;1.70;;;;;;;6.78;65.43;94767.66;5483796;26;20002;-73
2024/04/22 02:01:49;;;;;;;2.53;1.60;;;;;;;6.74;65.67;94764.19;5483616;26;19998;-72
2024/04/22 02:04:14;;;;;;;3.50;1.80;;;;;;;6.82;65.29;94767.56;5483248;26;20009;-71
2024/04/22 02:06:40;;;;;;;3.08;1.73;;;;;;;6.75;65.33;94771.19;5483516;26;20451;-71
2024/04/22 02:09:05;;;;;;;2.88;1.80;;;;;;;6.84;65.07;94757.03;5484579;26;20009;-73
2024/04/22 02:11:31;;;;;;;3.42;2.25;;;;;;;6.72;65.34;94758.38;5484538;26;20031;-72
2024/04/22 02:13:56;;;;;;;2.65;1.70;;;;;;;6.74;65.47;94761.47;5483640;26;20317;-72
2024/04/22 02:16:21;;;;;;;1.90;1.50;;;;;;;6.88;65.05;94774.09;5485129;26;20153;-72
2024/04/22 02:18:47;;;;;;;1.58;1.42;;;;;;;6.85;65.23;94772.22;5483151;26;20005;-72
2024/04/22 02:21:12;;;;;;;2.75;2.00;;;;;;;6.78;65.41;94769.63;5484739;26;20010;-72
2024/04/22 02:23:38;;;;;;;2.38;1.98;;;;;;;6.82;65.56;94771.06;5483747;26;20147;-73
2024/04/22 02:26:03;;;;;;;2.85;2.03;;;;;;;6.81;65.73;94766.03;5483744;26;20008;-72
2024/04/22 02:28:29;;;;;;;2.25;1.83;;;;;;;6.87;65.93;94767.88;5482368;26;19998;-73
2024/04/22 02:30:55;;;;;;;2.58;2.05;;;;;;;6.63;66.58;94771.78;5483431;26;20006;-73
2024/04/22 02:33:20;;;;;;;2.40;1.88;;;;;;;6.78;66.29;94767.66;5482332;26;20005;-72
2024/04/22 02:35:46;;;;;;;4.47;2.17;;;;;;;6.74;65.81;94771.63;5482702;26;20004;-72
2024/04/22 02:38:12;;;;;;;2.55;1.65;;;;;;;6.68;66.17;94770.56;5483337;26;20216;-73
2024/04/22 02:40:38;;;;;;;1.88;1.58;;;;;;;6.56;65.88;94769.97;5481155;26;20433;-73
2024/04/22 02:43:03;;;;;;;2.00;1.50;;;;;;;6.67;65.92;94769.03;5484559;26;19994;-73
2024/04/22 02:45:28;;;;;;;2.28;1.58;;;;;;;6.68;65.58;94778.75;5482124;26;20393;-73
2024/04/22 02:47:54;;;;;;;2.00;1.60;;;;;;;6.79;65.47;94763.72;5483938;26;20066;-72
2024/04/22 02:50:19;;;;;;;2.25;1.70;;;;;;;6.53;66.34;94759.84;5484368;26;20332;-72
2024/04/22 02:52:45;;;;;;;2.35;1.80;;;;;;;6.60;66.72;94775.38;5481086;26;20030;-73
2024/04/22 02:55:10;;;;;;;2.70;2.00;;;;;;;6.63;66.58;94780.75;5482690;26;20347;-73
2024/04/22 02:57:35;;;;;;;2.53;1.80;;;;;;;6.71;66.66;94778.72;5482672;26;20059;-73
2024/04/22 03:00:02;;;;;;;2.35;1.80;;;;;;;6.63;66.77;94780.00;5482750;26;19998;-73
2024/04/22 03:02:27;;;;;;;2.78;1.92;;;;;;;6.58;66.84;94783.97;5450867;26;20444;-72
2024/04/22 03:04:53;;;;;;;2.45;1.75;;;;;;;6.76;66.29;94785.63;5481799;26;20004;-72
2024/04/22 03:07:18;;;;;;;2.30;1.77;;;;;;;6.67;66.69;94788.13;5481710;26;20491;-73
2024/04/22 03:09:44;;;;;;;2.88;2.10;;;;;;;6.64;66.48;94785.03;5481018;26;20008;-72
2024/04/22 03:12:10;;;;;;;2.10;1.80;;;;;;;6.74;66.24;94790.75;5482404;26;20009;-72
2024/04/22 03:14:35;;;;;;;2.13;1.90;;;;;;;6.51;66.67;94803.19;5480602;26;19994;-72
2024/04/22 03:17:01;;;;;;;2.90;2.15;;;;;;;6.54;66.71;94807.06;5482610;26;20047;-72
2024/04/22 03:19:26;;;;;;;2.45;2.00;;;;;;;6.54;66.33;94796.16;5450749;26;20436;-72
2024/04/22 03:21:52;;;;;;;2.50;2.20;;;;;;;6.59;66.42;94806.59;5451253;26;20006;-72
2024/04/22 03:24:17;;;;;;;2.80;2.20;;;;;;;6.57;66.57;94803.50;5480857;26;20093;-72
2024/04/22 03:26:42;;;;;;;2.28;2.00;;;;;;;6.70;65.79;94809.91;5480827;26;20002;-72
2024/04/22 03:29:08;;;;;;;2.55;2.15;;;;;;;6.46;66.85;94816.53;5481936;26;19998;-72
2024/04/22 03:31:35;;;;;;;2.28;2.05;;;;;;;6.56;66.36;94821.84;5480698;26;20001;-72
2024/04/22 03:34:00;;;;;;;4.40;2.47;;;;;;;6.69;66.08;94821.28;5482275;26;19998;-73
2024/04/22 03:36:26;;;;;;;2.70;2.33;;;;;;;6.71;66.17;94813.41;5480393;26;20413;-72
2024/04/22 03:38:51;;;;;;;2.42;2.10;;;;;;;6.64;66.36;94831.47;5481831;26;20441;-72
2024/04/22 03:41:17;;;;;;;3.78;2.40;;;;;;;6.72;66.23;94832.16;5480738;26;20391;-73
2024/04/22 03:43:42;;;;;;;2.40;1.90;;;;;;;6.64;66.17;94830.69;5480788;26;20005;-73
2024/04/22 03:51:35;;;;;;;2.35;2.15;;;;;;;6.62;66.00;94833.09;5483472;26;20009;-73
2024/04/22 03:54:01;;;;;;;2.60;2.00;;;;;;;6.68;66.07;94831.44;5482203;26;20010;-75
2024/04/22 03:56:26;;;;;;;3.15;2.50;;;;;;;6.67;65.45;94835.34;5481338;26;19994;-72
2024/04/22 03:58:52;;;;;;;3.05;2.42;;;;;;;6.58;66.02;94838.59;5482073;26;20002;-72
2024/04/22 04:01:17;;;;;;;2.45;1.80;;;;;;;6.74;65.56;94837.19;5480872;26;20282;-74
2024/04/22 04:03:43;;;;;;;3.55;2.55;;;;;;;6.84;64.99;94833.53;5481140;26;19998;-74
2024/04/22 04:06:08;;;;;;;4.00;2.20;;;;;;;6.82;65.33;94838.63;5479617;26;20401;-74
2024/04/22 04:08:33;;;;;;;2.40;1.98;;;;;;;6.87;64.90;94840.88;5483391;26;20005;-73
2024/04/22 04:11:10;;;;;;;2.45;1.92;;;;;;;6.97;64.56;94839.94;5481425;26;20005;-74
2024/04/22 04:13:36;;;;;;;3.70;2.20;;;;;;;7.05;64.14;94851.53;5483320;26;20006;-74
2024/04/22 04:16:01;;;;;;;4.00;2.00;;;;;;;7.15;63.88;94848.59;5480496;26;20005;-73
2024/04/22 04:18:27;;;;;;;2.15;1.85;;;;;;;7.19;64.03;94852.06;5479439;26;20010;-73
2024/04/22 04:20:53;;;;;;;2.47;1.88;;;;;;;7.32;63.57;94860.44;5481216;26;20013;-73
2024/04/22 04:23:18;;;;;;;3.35;1.88;;;;;;;7.37;63.16;94859.97;5481473;26;20496;-73
2024/04/22 04:25:43;;;;;;;2.38;1.60;;;;;;;7.42;62.81;94866.91;5481758;26;19998;-71
2024/04/22 04:28:09;;;;;;;2.17;1.70;;;;;;;7.33;62.78;94867.44;5481280;26;19998;-73
2024/04/22 04:30:34;;;;;;;3.33;1.67;;;;;;;7.43;62.46;94868.44;5482580;26;19994;-73
2024/04/22 04:32:59;;;;;;;2.25;1.88;;;;;;;7.32;62.54;94868.63;5480717;26;20001;-73
2024/04/22 04:35:25;;;;;;;2.15;1.70;;;;;;;7.30;62.75;94870.25;5480663;26;20006;-73
2024/04/22 04:37:50;;;;;;;2.20;1.83;;;;;;;7.39;62.44;94873.22;5482022;26;20501;-73
2024/04/22 04:40:17;;;;;;;3.85;2.10;;;;;;;7.43;62.47;94879.41;5480355;26;19998;-73
2024/04/22 04:42:42;;;;;;;2.10;1.60;;;;;;;7.46;62.42;94878.56;5480498;26;20009;-71
2024/04/22 04:45:07;;;;;;;2.42;2.10;;;;;;;7.49;62.57;94888.66;5480799;26;20421;-73
2024/04/22 04:47:33;;;;;;;2.45;2.05;;;;;;;7.41;63.01;94892.72;5481014;26;20004;-73
2024/04/22 04:49:58;;;;;;;2.22;1.60;;;;;;;7.39;62.94;94892.34;5479127;26;20010;-73
2024/04/22 04:52:23;;;;;;;3.33;1.90;;;;;;;7.42;63.25;94897.00;5482487;26;20055;-73
2024/04/22 04:54:49;;;;;;;3.08;2.22;;;;;;;7.43;63.44;94898.53;5481257;26;20005;-73
2024/04/22 04:57:14;;;;;;;3.38;2.20;;;;;;;7.45;63.03;94899.69;5485450;26;20416;-73
2024/04/22 04:59:40;;;;;;;5.50;2.97;;;;;;;7.58;63.16;94901.81;5484024;26;20039;-73
2024/04/22 05:02:05;;;;;;;3.88;2.35;;;;;;;7.65;63.05;94904.41;5452837;26;20038;-73
2024/04/22 05:04:30;;;;;;;3.47;2.25;;;;;;;7.53;62.70;94905.78;5484365;26;20447;-73
2024/04/22 05:06:56;;;;;;;2.45;1.90;;;;;;;7.46;62.50;94897.72;5483560;26;20002;-72
2024/04/22 05:09:21;;;;;;;2.85;1.92;;;;;;;7.51;62.21;94904.66;5486010;26;20005;-72
2024/04/22 05:11:46;;;;;;;2.53;1.95;;;;;;;7.68;61.92;94901.63;5484641;26;20325;-72
2024/04/22 05:14:12;;;;;;;4.18;2.65;;;;;;;7.53;62.64;94897.59;5483911;26;20006;-73
2024/04/22 05:16:37;;;;;;;2.78;2.15;;;;;;;7.68;62.56;94901.63;5485247;26;19998;-72
2024/04/22 05:19:03;;;;;;;2.50;1.88;;;;;;;7.57;62.75;94901.03;5484552;26;20417;-72
2024/04/22 05:21:29;;;;;;;1.92;1.38;;;;;;;7.64;62.38;94900.91;5486190;26;20066;-72
2024/04/22 05:24:07;;;;;;;3.10;2.00;;;;;;;7.73;62.34;94909.31;5482161;26;20455;-72
2024/04/22 05:26:33;;;;;;;5.00;2.30;;;;;;;7.83;61.77;94909.56;5485329;26;19990;-72
2024/04/22 05:28:59;;;;;;;2.20;1.65;;;;;;;7.89;61.93;94911.38;5484554;26;20820;-73
2024/04/22 05:31:24;;;;;;;2.80;2.22;;;;;;;7.98;61.31;94916.31;5485527;26;20082;-72
2024/04/22 05:36:33;;;;;;;4.47;2.42;;;;;;;8.02;61.56;94913.50;5483160;26;20056;-72
2024/04/22 05:38:59;;;;;;;4.38;3.10;;;;;;;7.91;62.18;94919.97;5483809;26;20006;-73
2024/04/22 05:41:24;;;;;;;3.72;2.90;;;;;;;8.05;62.09;94916.16;5482007;26;20420;-73
2024/04/22 05:43:49;;;;;;;5.00;3.05;;;;;;;7.88;62.17;94911.81;5485461;26;19998;-72
2024/04/22 05:46:15;;;;;;;4.47;3.25;;;;;;;7.77;62.91;94908.50;5451922;26;19998;-72
2024/04/22 05:48:41;;;;;;;3.15;2.60;;;;;;;7.84;63.24;94919.31;5485320;26;19994;-72
2024/04/22 05:51:07;;;;;;;4.20;2.95;;;;;;;7.91;62.77;94914.50;5484767;26;19998;-72
2024/04/22 05:53:32;;;;;;;3.10;2.80;;;;;;;7.90;63.49;94920.38;5484383;26;20390;-73
2024/04/22 05:55:57;;;;;;;6.68;4.68;;;;;;;7.91;63.04;94922.69;5484871;26;20002;-73
2024/04/22 05:58:23;;;;;;;4.47;3.45;;;;;;;7.95;62.34;94928.88;5483714;26;19994;-73
2024/04/22 06:00:48;;;;;;;4.43;3.20;;;;;;;7.93;62.67;94928.53;5485281;26;19994;-73
2024/04/22 06:03:13;;;;;;;7.15;3.60;;;;;;;7.90;61.94;94920.38;5483430;26;20010;-73
2024/04/22 06:05:39;;;;;;;4.28;3.17;;;;;;;7.87;61.65;94919.25;5483696;26;20005;-73
2024/04/22 06:08:05;;;;;;;4.13;3.10;;;;;;;7.92;61.40;94920.75;5481317;26;19998;-73
2024/04/22 06:10:31;;;;;;;3.85;3.38;;;;;;;7.92;62.40;94934.44;5484585;26;20412;-73
2024/04/22 06:12:56;;;;;;;4.75;3.60;;;;;;;8.07;61.94;94927.47;5484288;26;19994;-73
2024/04/22 06:15:21;;;;;;;4.85;3.50;;;;;;;8.04;61.48;94938.50;5483855;26;19994;-73
2024/04/22 06:17:47;;;;;;;4.45;3.38;;;;;;;8.07;61.35;94938.41;5483292;26;20013;-73
2024/04/22 06:20:13;;;;;;;5.82;3.92;;;;;;;7.99;61.21;94937.03;5483387;26;20320;-73
2024/04/22 06:22:39;;;;;;;5.55;4.00;;;;;;;7.96;61.34;94946.06;5484825;26;20005;-73
2024/04/22 06:25:05;;;;;;;8.23;3.55;;;;;;;8.07;61.13;94954.84;5451052;26;19994;-72
2024/04/22 06:27:31;;;;;;;4.53;2.90;;;;;;;8.04;60.44;94943.97;5482480;26;20118;-71
2024/04/22 06:29:57;;;;;;;5.15;3.40;;;;;;;8.27;60.04;94956.84;5482203;26;20034;-72
2024/04/22 06:32:23;;;;;;;4.70;3.28;;;;;;;8.36;60.58;94959.81;5482258;26;20296;-73
2024/04/22 06:34:48;;;;;;;5.53;3.28;;;;;;;8.51;59.99;94956.38;5483953;26;20026;-72
2024/04/22 06:37:14;;;;;;;5.97;3.30;;;;;;;8.56;60.27;94959.81;5451084;26;20432;-72
2024/04/22 06:39:39;;;;;;;3.90;3.00;;;;;;;8.61;59.70;94973.78;5485166;26;19998;-72
2024/04/22 06:42:05;;;;;;;3.70;2.97;;;;;;;8.45;58.94;94962.75;5480955;26;19994;-72
2024/04/22 06:44:30;;;;;;;4.00;3.00;;;;;;;8.48;57.49;94979.13;5483930;26;20666;-75
2024/04/22 06:46:57;;;;;;;4.22;3.25;;;;;;;8.62;57.17;94977.28;5450873;26;20038;-73
2024/04/22 06:49:23;;;;;;;5.78;3.90;;;;;;;8.54;57.47;94984.88;5451805;26;20071;-72
2024/04/22 06:51:48;;;;;;;7.57;3.92;;;;;;;8.64;57.50;94980.38;5451607;26;20432;-72
2024/04/22 06:54:13;;;;;;;5.90;3.70;;;;;;;8.65;57.70;94988.16;5451056;26;19994;-73
2024/04/22 06:56:39;;;;;;;6.45;4.82;;;;;;;8.69;57.62;94988.09;5452789;26;20543;-74
2024/04/22 06:59:04;;;;;;;5.70;4.07;;;;;;;8.82;56.96;94991.72;5480607;26;19994;-72
2024/04/22 07:01:29;;;;;;;6.80;4.88;;;;;;;8.87;55.65;94980.28;5485081;26;19993;-72
2024/04/22 07:03:56;;;;;;;5.45;4.50;;;;;;;9.04;55.22;94983.81;5482841;26;19998;-72
2024/04/22 07:06:22;;;;;;;5.55;4.20;;;;;;;9.03;54.15;94987.78;5452251;26;19994;-73
2024/04/22 07:08:48;;;;;;;6.18;3.75;;;;;;;9.19;54.36;94992.53;5483067;26;19998;-70
2024/04/22 07:11:13;;;;;;;6.03;4.25;;;;;;;9.28;54.30;94978.97;5481663;26;20005;-72
2024/04/22 07:13:39;;;;;;;5.97;4.00;;;;;;;9.31;54.73;94994.59;5484432;26;20365;-72
2024/04/22 07:16:04;;;;;;;5.50;4.05;;;;;;;9.41;54.70;94990.06;5482075;26;20066;-71
2024/04/22 07:18:30;;;;;;;5.15;4.05;;;;;;;9.54;53.78;94988.94;5483463;26;20316;-71
2024/04/22 07:20:56;;;;;;;5.30;3.85;;;;;;;9.50;53.81;94992.97;5479715;26;20054;-70
2024/04/22 07:23:21;;;;;;;5.00;4.50;;;;;;;9.48;54.18;95003.63;5484065;26;20002;-71
2024/04/22 07:25:47;;;;;;;4.45;3.55;;;;;;;9.65;53.27;94999.66;5480565;26;19994;-70
2024/04/22 07:28:13;;;;;;;6.50;5.13;;;;;;;9.74;52.57;95010.81;5451031;26;20002;-71
2024/04/22 07:30:38;;;;;;;8.90;4.65;;;;;;;9.75;53.40;95017.09;5483908;26;20417;-71
2024/04/22 07:33:04;;;;;;;9.32;4.82;;;;;;;9.92;53.02;95015.88;5482277;26;20066;-71
2024/04/22 07:35:30;;;;;;;6.63;4.47;;;;;;;9.97;52.57;95014.56;5483916;26;20043;-71
2024/04/22 07:37:58;;;;;;;8.18;4.75;;;;;;;10.09;51.87;95013.88;5481519;26;19995;-71
2024/04/22 07:40:23;;;;;;;8.95;4.63;;;;;;;10.07;51.60;95024.53;5482197;26;19994;-71
2024/04/22 07:42:49;;;;;;;5.70;3.80;;;;;;;10.05;49.19;95030.44;5481752;26;19998;-71
2024/04/22 07:45:16;;;;;;;6.15;4.22;;;;;;;10.08;49.45;95018.59;5481813;26;20009;-71
2024/04/22 07:47:42;;;;;;;5.55;4.22;;;;;;;10.20;49.30;95030.84;5480899;26;20002;-71
2024/04/22 07:50:08;;;;;;;4.00;3.60;;;;;;;10.28;49.20;95026.75;5480224;26;19994;-71
2024/04/22 07:52:34;;;;;;;3.78;3.38;;;;;;;10.24;48.79;95020.56;5481545;26;19990;-72
2024/04/22 07:55:00;;;;;;;5.07;3.85;;;;;;;10.40;49.11;95024.50;5479911;26;19990;-71
2024/04/22 07:57:26;;;;;;;5.82;3.67;;;;;;;10.43;50.41;95021.63;5483600;26;20008;-70
2024/04/22 07:59:52;;;;;;;4.82;3.80;;;;;;;10.51;50.41;95025.75;5478440;26;20005;-72
2024/04/22 08:02:18;;;;;;;5.97;3.90;;;;;;;10.71;50.18;95024.81;5482498;26;20345;-72
2024/04/22 08:04:43;;;;;;;7.72;4.10;;;;;;;10.81;49.57;95037.50;5481853;26;20004;-71
2024/04/22 08:07:12;;;;;;;6.13;3.20;;;;;;;10.71;48.57;95033.06;5481807;26;19994;-72
2024/04/22 08:09:37;;;;;;;4.30;3.10;;;;;;;10.81;48.43;95043.78;5450863;26;20002;-72
2024/04/22 08:12:03;;;;;;;13.88;3.70;;;;;;;10.88;48.11;95040.81;5479167;26;19998;-72
2024/04/22 08:14:29;;;;;;;3.83;3.03;;;;;;;10.96;47.75;95041.41;5481358;26;20005;-72
2024/04/22 08:16:54;;;;;;;6.38;4.13;;;;;;;11.01;48.28;95045.56;5479631;26;20377;-72
2024/04/22 08:19:19;;;;;;;3.85;3.15;;;;;;;11.02;46.83;95044.38;5482788;26;20401;-72
2024/04/22 08:21:45;;;;;;;4.57;3.65;;;;;;;10.96;46.74;95038.66;5481406;26;20109;-72
2024/04/22 08:24:10;;;;;;;5.15;3.20;;;;;;;11.04;46.15;95041.97;5481771;26;20321;-72
2024/04/22 08:26:36;;;;;;;6.03;3.70;;;;;;;11.09;45.90;95041.41;5479530;26;19994;-72
2024/04/22 08:29:01;;;;;;;5.28;3.38;;;;;;;11.20;46.39;95044.63;5481076;26;20006;-72
2024/04/22 08:31:27;;;;;;;3.85;3.13;;;;;;;11.30;45.50;95024.28;5483366;26;20005;-72
2024/04/22 08:33:52;;;;;;;5.13;3.22;;;;;;;11.55;44.96;95040.03;5484135;26;20409;-72
2024/04/22 08:36:23;;;;;;;5.95;3.83;;;;;;;11.72;46.48;95039.91;5486761;26;20005;-71
2024/04/22 08:38:48;;;;;;;6.25;3.80;;;;;;;11.81;45.91;95040.00;5484785;26;20008;-72
2024/04/22 08:41:16;;;;;;;4.25;3.30;;;;;;;12.00;46.09;95036.28;5485616;26;19994;-72
2024/04/22 08:43:42;;;;;;;4.35;3.33;;;;;;;12.17;44.73;95042.44;5485441;26;20682;-72
2024/04/22 08:46:07;;;;;;;4.22;3.78;;;;;;;12.26;44.91;95038.97;5483073;26;20026;-72
2024/04/22 08:48:33;;;;;;;5.03;4.28;;;;;;;12.39;45.59;95034.97;5485251;26;19998;-71
2024/04/22 08:51:00;;;;;;;4.55;3.90;;;;;;;12.56;44.97;95045.81;5484803;26;20069;-71
2024/04/22 08:53:25;;;;;;;5.07;4.13;;;;;;;12.84;44.11;95038.53;5486114;26;20005;-71
2024/04/22 08:55:51;;;;;;;5.03;3.63;;;;;;;13.03;42.89;95035.47;5484495;26;19994;-72
2024/04/22 08:58:16;;;;;;;5.43;3.65;;;;;;;13.29;43.07;95038.09;5485573;26;20483;-72
2024/04/22 09:00:42;;;;;;;5.07;3.63;;;;;;;13.21;42.27;95017.50;5483313;26;20069;-71
2024/04/22 09:03:08;;;;;;;5.10;3.42;;;;;;;13.35;41.18;95041.03;5483237;26;20386;-72
2024/04/22 09:05:34;;;;;;;3.63;3.10;;;;;;;13.35;41.48;95039.03;5485632;26;20403;-71
2024/04/22 09:08:05;;;;;;;3.13;2.80;;;;;;;13.54;41.04;95040.69;5483905;26;20006;-71
2024/04/22 09:10:31;;;;;;;4.13;3.22;;;;;;;13.60;40.65;95035.34;5485961;26;19998;-71
2024/04/22 09:13:00;;;;;;;5.72;4.57;;;;;;;13.80;41.60;95032.16;5482010;26;20420;-72
2024/04/22 09:15:27;;;;;;;6.22;5.10;;;;;;;13.94;41.66;95039.91;5483491;26;19998;-72
2024/04/22 09:17:53;;;;;;;6.25;4.55;;;;;;;14.02;41.74;95037.63;5482775;26;20145;-72
2024/04/22 09:20:22;;;;;;;6.25;3.88;;;;;;;14.26;39.88;95037.81;5484633;26;20476;-71
2024/04/22 09:22:48;;;;;;;3.65;3.30;;;;;;;14.18;39.95;95040.13;5483738;26;20460;-72
2024/04/22 09:25:14;;;;;;;3.92;3.00;;;;;;;14.33;39.34;95029.22;5482080;26;20071;-72
2024/04/22 09:27:44;;;;;;;6.43;3.45;;;;;;;14.46;38.72;95035.41;5485893;26;20022;-71
2024/04/22 09:30:10;;;;;;;6.63;4.18;;;;;;;14.74;38.07;95038.97;5481840;26;20009;-72
2024/04/22 09:32:35;;;;;;;6.65;4.55;;;;;;;14.93;38.02;95039.72;5483898;26;20002;-71
2024/04/22 09:35:15;;;;;;;6.80;3.95;;;;;;;15.15;39.03;95036.78;5482214;26;20006;-72
2024/04/22 09:37:44;;;;;;;5.18;4.15;;;;;;;15.31;38.15;95025.34;5453072;26;20002;-71
2024/04/22 09:40:10;;;;;;;3.75;3.45;;;;;;;15.41;38.08;95029.63;5483418;26;20006;-72
2024/04/22 09:42:38;;;;;;;3.80;3.25;;;;;;;15.62;37.65;95027.09;5482888;26;20421;-72
2024/04/22 09:45:04;;;;;;;4.35;3.60;;;;;;;15.97;37.26;95030.22;5483469;26;20334;-72
2024/04/22 09:47:31;;;;;;;4.85;2.80;;;;;;;16.18;35.49;95022.88;5451806;26;20004;-72
2024/04/22 09:49:57;;;;;;;3.90;3.50;;;;;;;16.44;35.40;95031.47;5483158;26;20000;-72
2024/04/22 09:52:23;;;;;;;4.22;3.08;;;;;;;16.53;35.49;95034.19;5482146;26;20014;-72
2024/04/22 09:54:48;;;;;;;4.80;3.80;;;;;;;16.74;35.72;95029.56;5483422;26;19990;-73
2024/04/22 09:57:14;;;;;;;3.42;3.00;;;;;;;16.91;34.65;95029.91;5484541;26;20061;-72
2024/04/22 09:59:40;;;;;;;4.13;3.22;;;;;;;17.22;34.42;95021.13;5481824;26;20661;-72
2024/04/22 10:02:06;;;;;;;4.82;3.10;;;;;;;17.29;34.34;95012.41;5485163;26;19998;-72
2024/04/22 10:04:31;;;;;;;4.10;3.15;;;;;;;17.40;34.06;95012.59;5451295;26;20054;-72
2024/04/22 10:06:56;;;;;;;5.20;3.35;;;;;;;17.63;33.80;95016.53;5452458;26;19994;-72
2024/04/22 10:09:22;;;;;;;3.42;2.90;;;;;;;17.42;32.89;95001.75;5483742;26;19998;-72
2024/04/22 10:11:47;;;;;;;3.40;3.00;;;;;;;17.64;33.14;94995.03;5483037;26;20009;-72
2024/04/22 10:14:15;;;;;;;5.25;3.88;;;;;;;17.93;32.44;94994.25;5483660;26;19998;-72
2024/04/22 10:16:52;;;;;;;6.78;3.92;;;;;;;18.21;32.11;95000.19;5481901;26;20281;-72
2024/04/22 10:19:19;;;;;;;6.38;3.03;;;;;;;18.44;31.91;95004.81;5452641;26;19994;-72
2024/04/22 10:21:48;;;;;;;3.60;2.83;;;;;;;18.74;31.72;95011.00;5481386;26;20005;-72
2024/04/22 10:24:13;;;;;;;4.55;2.92;;;;;;;18.86;31.13;95003.53;5482759;26;20341;-72
2024/04/22 10:26:43;;;;;;;3.15;2.72;;;;;;;19.13;30.21;95005.09;5480983;26;20002;-73
2024/04/22 10:29:08;;;;;;;4.07;3.17;;;;;;;19.30;30.09;95010.84;5484340;26;19998;-72
2024/04/22 10:31:33;;;;;;;2.90;2.60;;;;;;;19.60;30.35;95014.94;5483787;26;20010;-72
2024/04/22 10:33:59;;;;;;;4.15;3.28;;;;;;;19.89;29.54;95002.72;5483273;26;19994;-72
2024/04/22 10:36:25;;;;;;;4.03;2.85;;;;;;;19.72;28.43;95001.84;5452194;26;19998;-72
2024/04/22 10:38:51;;;;;;;8.85;8.05;;;;;;;19.98;28.84;95001.78;5482894;26;20009;-72
2024/04/22 10:41:16;;;;;;;4.60;3.55;;;;;;;20.41;28.27;94993.38;5482919;26;19998;-73
2024/04/22 10:43:45;;;;;;;4.63;3.08;;;;;;;20.81;27.97;94994.34;5483106;26;20358;-72
2024/04/22 10:46:10;;;;;;;4.13;2.97;;;;;;;20.93;27.47;94996.69;5482176;26;20428;-72
2024/04/22 10:48:36;;;;;;;5.22;3.05;;;;;;;21.07;27.02;94994.19;5451170;26;19998;-73
2024/04/22 10:51:02;;;;;;;2.92;2.50;;;;;;;20.94;27.20;94997.44;5481653;26;20325;-72
2024/04/22 10:53:27;;;;;;;3.67;3.20;;;;;;;21.05;26.63;94997.47;5451689;26;19994;-73
2024/04/22 10:55:54;;;;;;;3.42;2.50;;;;;;;21.08;27.00;95002.06;5482924;26;20005;-73
2024/04/22 10:58:19;;;;;;;3.88;3.40;;;;;;;21.37;26.36;95000.84;5482981;26;20422;-73
2024/04/22 11:00:45;;;;;;;2.95;2.63;;;;;;;21.49;26.07;94998.84;5480456;26;20002;-73
2024/04/22 11:03:11;;;;;;;3.85;2.97;;;;;;;21.73;26.37;94998.31;5483682;26;20008;-73
2024/04/22 11:05:36;;;;;;;2.88;2.40;;;;;;;21.85;25.93;94999.88;5482531;26;19994;-73
2024/04/22 11:08:02;;;;;;;3.72;2.60;;;;;;;22.06;26.25;94991.94;5483660;26;20327;-72
2024/04/22 11:10:28;;;;;;;2.80;2.30;;;;;;;22.46;25.25;94998.25;5482130;26;20149;-73
2024/04/22 11:12:54;;;;;;;3.47;2.50;;;;;;;22.50;25.09;95001.56;5481573;26;20006;-73
2024/04/22 11:15:20;;;;;;;5.32;3.28;;;;;;;22.85;24.84;95000.16;5482157;26;19998;-73
2024/04/22 11:17:46;;;;;;;5.40;3.90;;;;;;;22.85;25.08;94998.09;5480638;26;20009;-72
2024/04/22 11:20:13;;;;;;;5.40;2.92;;;;;;;22.80;24.25;94991.25;5483833;26;20088;-72
2024/04/22 11:22:38;;;;;;;3.97;3.00;;;;;;;22.64;24.55;94997.66;5482032;26;19994;-72
2024/04/22 11:25:04;;;;;;;5.70;3.40;;;;;;;22.06;25.09;95000.34;5481179;26;20034;-73
2024/04/22 11:27:33;;;;;;;4.88;3.28;;;;;;;21.92;25.90;95002.16;5480722;26;20081;-73
2024/04/22 11:29:58;;;;;;;4.13;3.00;;;;;;;22.34;25.70;94993.97;5480981;26;20002;-72
2024/04/22 11:32:27;;;;;;;4.35;2.78;;;;;;;22.93;24.98;94987.88;5481743;26;20009;-73
2024/04/22 11:34:52;;;;;;;4.10;2.60;;;;;;;22.75;24.99;94994.06;5450490;26;20010;-72
2024/04/22 11:37:18;;;;;;;3.15;2.70;;;;;;;22.75;25.34;94992.03;5483693;26;19998;-73
2024/04/22 11:39:43;;;;;;;4.00;2.90;;;;;;;22.63;25.86;94987.00;5480447;26;19994;-73